createdAt,value
2022-10-23T00:03:28.076Z,2.55
2022-10-23T00:08:50.060Z,2.30
2022-10-23T00:14:11.531Z,2.40
2022-10-23T00:19:32.755Z,3.10
2022-10-23T00:24:53.990Z,4.50
2022-10-23T00:30:15.617Z,3.17
2022-10-23T00:35:43.875Z,3.95
2022-10-23T00:41:07.757Z,3.28
2022-10-23T00:46:29.389Z,4.32
2022-10-23T00:52:01.391Z,3.35
2022-10-23T00:57:23.007Z,2.88
2022-10-23T01:02:44.849Z,3.60
2022-10-23T01:08:18.432Z,2.28
2022-10-23T01:13:59.429Z,2.80
2022-10-23T01:25:23.876Z,3.70
2022-10-23T01:30:45.640Z,2.72
2022-10-23T01:36:14.639Z,3.38
2022-10-23T01:41:44.576Z,4.60
2022-10-23T01:47:12.625Z,3.35
2022-10-23T01:52:49.099Z,5.00
2022-10-23T01:58:12.137Z,4.93
2022-10-23T02:03:37.741Z,2.47
2022-10-23T02:08:59.236Z,4.68
2022-10-23T02:14:51.021Z,4.32
2022-10-23T02:20:39.082Z,6.65
2022-10-23T02:26:08.092Z,4.13
2022-10-23T02:31:29.667Z,3.47
2022-10-23T02:36:51.324Z,4.25
2022-10-23T02:42:27.947Z,4.88
2022-10-23T02:48:22.644Z,4.45
2022-10-23T02:54:01.379Z,3.83
2022-10-23T02:59:31.977Z,4.95
2022-10-23T03:04:56.243Z,4.30
2022-10-23T03:10:18.052Z,4.75
2022-10-23T03:15:39.323Z,4.72
2022-10-23T03:21:01.052Z,4.22
2022-10-23T03:26:23.039Z,4.65
2022-10-23T03:31:44.438Z,4.68
2022-10-23T03:37:05.873Z,4.22
2022-10-23T03:42:27.304Z,3.95
2022-10-23T03:47:50.931Z,6.60
2022-10-23T03:53:12.223Z,4.78
2022-10-23T03:58:34.341Z,4.95
2022-10-23T04:03:55.983Z,6.68
2022-10-23T04:09:20.173Z,5.35
2022-10-23T04:14:41.746Z,6.90
2022-10-23T04:20:03.676Z,6.10
2022-10-23T04:25:25.053Z,7.00
2022-10-23T04:30:46.784Z,7.28
2022-10-23T04:36:08.810Z,4.45
2022-10-23T04:41:30.281Z,5.07
2022-10-23T04:46:51.887Z,5.05
2022-10-23T04:52:13.547Z,5.07
2022-10-23T04:57:58.285Z,6.15
2022-10-23T05:03:20.660Z,7.45
2022-10-23T05:08:41.895Z,4.18
2022-10-23T05:14:29.959Z,7.07
2022-10-23T05:19:56.912Z,4.97
2022-10-23T05:25:18.505Z,4.72
2022-10-23T05:30:45.707Z,5.45
2022-10-23T05:36:08.857Z,5.25
2022-10-23T05:41:30.223Z,6.00
2022-10-23T05:46:53.783Z,6.45
2022-10-23T05:52:50.440Z,5.53
2022-10-23T05:58:37.750Z,5.95
2022-10-23T06:04:14.057Z,4.80
2022-10-23T06:10:10.360Z,4.32
2022-10-23T06:15:37.193Z,6.22
2022-10-23T06:21:18.783Z,4.90
2022-10-23T06:26:42.852Z,6.00
2022-10-23T06:32:16.541Z,6.45
2022-10-23T06:37:45.239Z,6.75
2022-10-23T06:43:11.770Z,5.47
2022-10-23T06:48:51.858Z,6.85
2022-10-23T06:54:19.061Z,5.78
2022-10-23T07:00:00.954Z,6.60
2022-10-23T07:05:25.241Z,7.63
2022-10-23T07:10:48.133Z,10.07
2022-10-23T07:16:21.827Z,6.75
2022-10-23T07:27:25.150Z,7.00
2022-10-23T07:32:50.950Z,6.38
2022-10-23T07:38:30.537Z,8.63
2022-10-23T07:43:52.605Z,6.97
2022-10-23T07:49:14.018Z,8.48
2022-10-23T07:54:35.539Z,7.18
2022-10-23T08:00:07.076Z,6.25
2022-10-23T08:05:35.378Z,6.65
2022-10-23T08:10:58.513Z,8.40
2022-10-23T08:16:25.608Z,8.93
2022-10-23T08:21:50.101Z,7.00
2022-10-23T08:27:12.199Z,8.25
2022-10-23T08:32:38.898Z,8.57
2022-10-23T08:38:01.025Z,7.43
2022-10-23T08:43:41.848Z,9.13
2022-10-23T08:49:41.291Z,9.02
2022-10-23T08:55:15.630Z,9.52
2022-10-23T09:00:37.369Z,8.63
2022-10-23T09:06:13.727Z,8.40
2022-10-23T09:11:43.214Z,7.70
2022-10-23T09:17:23.858Z,9.27
2022-10-23T09:22:46.947Z,11.03
2022-10-23T09:28:21.043Z,7.72
2022-10-23T09:33:53.373Z,8.98
2022-10-23T09:39:26.972Z,8.15
2022-10-23T09:44:51.060Z,9.23
2022-10-23T09:50:22.634Z,8.32
2022-10-23T09:55:51.149Z,8.48
2022-10-23T10:01:30.645Z,8.02
2022-10-23T10:07:25.053Z,8.98
2022-10-23T10:12:58.393Z,9.88
2022-10-23T10:18:40.252Z,8.00
2022-10-23T10:24:30.636Z,8.73
2022-10-23T10:29:58.243Z,6.70
2022-10-23T10:35:23.054Z,7.15
2022-10-23T10:41:18.482Z,7.82
2022-10-23T10:47:02.061Z,8.77
2022-10-23T10:52:34.709Z,8.98
2022-10-23T10:58:36.026Z,7.25
2022-10-23T11:04:07.027Z,6.47
2022-10-23T11:09:30.265Z,6.70
2022-10-23T11:14:53.404Z,7.18
2022-10-23T11:20:25.356Z,6.65
2022-10-23T11:31:38.767Z,7.00
2022-10-23T11:37:05.090Z,5.88
2022-10-23T11:42:32.730Z,7.25
2022-10-23T11:48:31.440Z,7.45
2022-10-23T11:53:52.914Z,7.68
2022-10-23T11:59:31.850Z,9.35
2022-10-23T12:04:54.647Z,8.55
2022-10-23T12:10:51.040Z,6.50
2022-10-23T12:16:13.418Z,7.70
2022-10-23T12:21:35.393Z,8.77
2022-10-23T12:27:08.243Z,9.20
2022-10-23T12:32:54.394Z,7.68
2022-10-23T12:38:20.401Z,7.53
2022-10-23T12:43:45.724Z,6.70
2022-10-23T12:49:21.365Z,5.30
2022-10-23T12:54:42.914Z,7.30
2022-10-23T13:00:15.093Z,5.80
2022-10-23T13:05:37.583Z,6.35
2022-10-23T13:10:58.999Z,4.68
2022-10-23T13:16:24.888Z,3.63
2022-10-23T13:21:46.669Z,5.32
2022-10-23T13:27:46.559Z,5.25
2022-10-23T13:33:24.135Z,6.30
2022-10-23T13:38:48.219Z,7.15
2022-10-23T13:44:15.557Z,6.10
2022-10-23T13:49:36.914Z,8.32
2022-10-23T13:54:58.453Z,5.45
2022-10-23T14:00:19.658Z,6.63
2022-10-23T14:05:41.124Z,6.28
2022-10-23T14:11:02.835Z,6.78
2022-10-23T14:16:24.427Z,5.10
2022-10-23T14:21:45.884Z,6.63
2022-10-23T14:27:07.207Z,6.97
2022-10-23T14:32:28.322Z,7.53
2022-10-23T14:37:49.574Z,6.57
2022-10-23T14:43:10.686Z,7.20
2022-10-23T14:48:32.138Z,7.47
2022-10-23T14:54:00.051Z,7.30
2022-10-23T14:59:21.201Z,7.53
2022-10-23T15:04:42.841Z,8.90
2022-10-23T15:10:05.192Z,8.65
2022-10-23T15:15:26.763Z,7.80
2022-10-23T15:20:54.394Z,6.60
2022-10-23T15:26:23.019Z,7.22
2022-10-23T15:31:47.872Z,6.60
2022-10-23T15:37:10.468Z,7.05
2022-10-23T15:42:31.869Z,8.15
2022-10-23T15:47:53.125Z,6.50
2022-10-23T15:53:14.255Z,7.90
2022-10-23T15:58:35.743Z,8.00
2022-10-23T16:03:57.056Z,7.70
2022-10-23T16:09:18.373Z,8.18
2022-10-23T16:14:40.035Z,9.38
2022-10-23T16:20:01.425Z,8.98
2022-10-23T16:25:24.230Z,7.40
2022-10-23T16:30:46.532Z,6.95
2022-10-23T16:36:09.661Z,5.85
2022-10-23T16:41:49.548Z,5.70
2022-10-23T16:47:13.770Z,7.53
2022-10-23T16:52:35.166Z,7.20
2022-10-23T16:57:58.498Z,7.20
2022-10-23T17:03:19.837Z,6.85
2022-10-23T17:08:41.428Z,7.38
2022-10-23T17:14:16.423Z,7.22
2022-10-23T17:19:45.194Z,6.68
2022-10-23T17:25:08.237Z,8.68
2022-10-23T17:30:29.830Z,7.00
2022-10-23T17:35:51.375Z,5.40
2022-10-23T17:41:16.641Z,4.88
2022-10-23T17:46:38.393Z,6.55
2022-10-23T17:51:59.959Z,7.93
2022-10-23T18:02:49.040Z,7.35
2022-10-23T18:08:10.723Z,5.10
2022-10-23T18:13:33.202Z,6.20
2022-10-23T18:18:55.232Z,6.30
2022-10-23T18:24:17.527Z,5.32
2022-10-23T18:29:39.663Z,6.88
2022-10-23T18:35:01.286Z,6.47
2022-10-23T18:40:27.166Z,6.55
2022-10-23T18:45:50.236Z,6.43
2022-10-23T18:51:20.305Z,7.70
2022-10-23T18:56:42.363Z,5.32
2022-10-23T19:02:03.776Z,7.10
2022-10-23T19:07:25.260Z,4.50
2022-10-23T19:12:46.966Z,6.97
2022-10-23T19:18:09.094Z,6.10
2022-10-23T19:23:30.724Z,5.18
2022-10-23T19:34:22.691Z,5.32
2022-10-23T19:39:44.254Z,4.60
2022-10-23T19:45:09.576Z,4.60
2022-10-23T19:50:30.678Z,3.70
2022-10-23T19:55:51.868Z,4.47
2022-10-23T20:01:17.000Z,4.47
2022-10-23T20:06:38.982Z,4.72
2022-10-23T20:12:00.765Z,4.75
2022-10-23T20:17:22.725Z,5.78
2022-10-23T20:22:44.346Z,6.10
2022-10-23T20:28:07.489Z,5.43
2022-10-23T20:33:30.817Z,4.25
2022-10-23T20:38:52.707Z,5.10
2022-10-23T20:49:38.916Z,4.22
2022-10-23T20:55:00.533Z,4.38
2022-10-23T21:00:22.047Z,5.22
2022-10-23T21:05:43.738Z,5.38
2022-10-23T21:11:06.478Z,5.00
2022-10-23T21:16:31.001Z,5.07
2022-10-23T21:21:52.708Z,4.38
2022-10-23T21:27:15.328Z,4.28
2022-10-23T21:32:36.844Z,5.07
2022-10-23T21:37:58.900Z,3.92
2022-10-23T21:43:20.500Z,4.63
2022-10-23T21:48:42.019Z,5.47
2022-10-23T21:54:08.317Z,4.70
2022-10-23T21:59:30.387Z,4.45
2022-10-23T22:04:53.461Z,5.25
2022-10-23T22:10:14.844Z,4.57
2022-10-23T22:15:36.259Z,5.47
2022-10-23T22:21:03.002Z,4.10
2022-10-23T22:26:30.225Z,4.88
2022-10-23T22:31:52.087Z,5.10
2022-10-23T22:37:13.385Z,4.60
2022-10-23T22:42:34.746Z,5.90
2022-10-23T22:47:56.263Z,5.53
2022-10-23T22:53:17.722Z,6.60
2022-10-23T22:58:39.276Z,5.75
2022-10-23T23:04:08.959Z,5.82
2022-10-23T23:09:44.062Z,4.53
2022-10-23T23:15:06.581Z,5.32
2022-10-23T23:20:27.882Z,5.22
2022-10-23T23:25:50.387Z,6.25
2022-10-23T23:31:25.945Z,5.45
2022-10-23T23:36:49.026Z,5.35
2022-10-23T23:42:10.437Z,5.25
2022-10-23T23:47:32.013Z,7.53
2022-10-23T23:52:53.498Z,5.40
2022-10-23T23:58:14.833Z,5.97
